createdAt,value
2023-05-13T00:02:13.957Z,24.25
2023-05-13T00:04:40.658Z,24.20
2023-05-13T00:07:07.566Z,24.63
2023-05-13T00:09:34.329Z,23.50
2023-05-13T00:12:01.549Z,24.05
2023-05-13T00:14:28.253Z,25.13
2023-05-13T00:16:55.453Z,24.77
2023-05-13T00:19:22.123Z,25.77
2023-05-13T00:21:48.844Z,24.27
2023-05-13T00:24:15.578Z,24.27
2023-05-13T00:26:42.230Z,24.52
2023-05-13T00:29:08.959Z,23.88
2023-05-13T00:31:36.988Z,23.65
2023-05-13T00:34:04.178Z,24.10
2023-05-13T00:36:30.893Z,24.48
2023-05-13T00:38:57.537Z,24.83
2023-05-13T00:41:24.334Z,24.45
2023-05-13T00:43:54.760Z,25.27
2023-05-13T00:46:21.506Z,26.42
2023-05-13T00:48:48.246Z,25.58
2023-05-13T00:51:14.978Z,25.40
2023-05-13T00:53:42.515Z,25.15
2023-05-13T00:56:09.369Z,25.25
2023-05-13T00:58:36.161Z,24.10
2023-05-13T01:01:02.846Z,24.55
2023-05-13T01:03:39.687Z,23.83
2023-05-13T01:06:27.460Z,25.35
2023-05-13T01:09:07.087Z,24.65
2023-05-13T01:11:38.631Z,25.40
2023-05-13T01:14:25.916Z,24.38
2023-05-13T01:16:58.751Z,24.35
2023-05-13T01:19:43.848Z,25.60
2023-05-13T01:22:10.819Z,24.35
2023-05-13T01:24:37.874Z,24.83
2023-05-13T01:27:05.516Z,24.73
2023-05-13T01:29:32.441Z,25.27
2023-05-13T01:32:02.486Z,26.63
2023-05-13T01:34:31.006Z,26.02
2023-05-13T01:36:59.591Z,26.05
2023-05-13T01:39:28.171Z,25.42
2023-05-13T01:41:58.895Z,26.50
2023-05-13T01:44:25.655Z,26.00
2023-05-13T01:46:53.492Z,26.55
2023-05-13T01:49:20.425Z,27.33
2023-05-13T01:51:47.154Z,28.85
2023-05-13T01:54:14.148Z,29.08
2023-05-13T01:56:46.869Z,28.65
2023-05-13T01:59:13.765Z,27.27
2023-05-13T02:01:40.993Z,27.48
2023-05-13T02:04:07.835Z,27.02
2023-05-13T02:06:34.664Z,26.55
2023-05-13T02:09:02.021Z,25.17
2023-05-13T02:11:29.309Z,25.70
2023-05-13T02:13:57.488Z,26.60
2023-05-13T02:16:24.232Z,27.63
2023-05-13T02:18:51.388Z,27.77
2023-05-13T02:21:18.580Z,28.52
2023-05-13T02:23:45.266Z,27.05
2023-05-13T02:26:12.018Z,25.67
2023-05-13T02:28:39.095Z,24.42
2023-05-13T02:31:06.527Z,26.92
2023-05-13T02:33:33.411Z,26.27
2023-05-13T02:36:00.628Z,26.95
2023-05-13T02:38:27.264Z,25.88
2023-05-13T02:40:54.280Z,26.52
2023-05-13T02:43:21.568Z,25.83
2023-05-13T02:45:55.244Z,24.87
2023-05-13T02:48:22.075Z,25.08
2023-05-13T02:50:48.805Z,25.45
2023-05-13T02:53:15.516Z,25.85
2023-05-13T02:55:48.827Z,26.10
2023-05-13T02:58:15.634Z,26.48
2023-05-13T03:00:43.017Z,26.13
2023-05-13T03:03:10.333Z,27.30
2023-05-13T03:05:38.804Z,27.10
2023-05-13T03:08:05.609Z,24.58
2023-05-13T03:10:32.328Z,26.85
2023-05-13T03:12:59.056Z,25.67
2023-05-13T03:15:25.750Z,27.73
2023-05-13T03:17:52.538Z,27.25
2023-05-13T03:20:20.875Z,25.63
2023-05-13T03:22:47.704Z,27.17
2023-05-13T03:25:15.296Z,27.30
2023-05-13T03:27:47.473Z,25.98
2023-05-13T03:30:15.777Z,28.13
2023-05-13T03:32:51.959Z,25.73
2023-05-13T03:35:19.076Z,27.13
2023-05-13T03:37:45.952Z,27.70
2023-05-13T03:40:14.196Z,26.95
2023-05-13T03:42:41.527Z,26.58
2023-05-13T03:45:08.994Z,27.15
2023-05-13T03:47:39.314Z,26.25
2023-05-13T03:50:09.964Z,26.73
2023-05-13T03:52:41.488Z,26.60
2023-05-13T03:55:09.518Z,26.05
2023-05-13T03:57:36.270Z,25.60
2023-05-13T04:00:04.681Z,25.08
2023-05-13T04:02:41.707Z,27.10
2023-05-13T04:05:09.799Z,27.00
2023-05-13T04:07:36.625Z,26.33
2023-05-13T04:10:03.499Z,25.48
2023-05-13T04:12:31.182Z,26.42
2023-05-13T04:14:57.854Z,25.13
2023-05-13T04:17:25.210Z,26.52
2023-05-13T04:19:55.861Z,25.25
2023-05-13T04:22:24.293Z,24.90
2023-05-13T04:24:56.439Z,25.60
2023-05-13T04:27:24.217Z,26.65
2023-05-13T04:29:54.777Z,25.20
2023-05-13T04:32:21.793Z,23.77
2023-05-13T04:34:52.298Z,24.27
2023-05-13T04:37:19.258Z,24.65
2023-05-13T04:39:47.375Z,26.15
2023-05-13T04:42:16.294Z,26.27
2023-05-13T04:44:43.534Z,24.88
2023-05-13T04:47:11.016Z,26.13
2023-05-13T04:49:37.895Z,26.15
2023-05-13T04:52:06.695Z,25.55
2023-05-13T04:54:35.834Z,24.65
2023-05-13T04:57:03.229Z,25.88
2023-05-13T04:59:30.936Z,25.10
2023-05-13T05:01:57.907Z,26.17
2023-05-13T05:04:25.502Z,27.30
2023-05-13T05:06:52.299Z,27.92
2023-05-13T05:09:19.037Z,27.67
2023-05-13T05:11:50.000Z,27.45
2023-05-13T05:14:17.922Z,27.92
2023-05-13T05:16:45.937Z,29.05
2023-05-13T05:19:14.272Z,27.20
2023-05-13T05:21:41.315Z,27.08
2023-05-13T05:24:08.708Z,26.88
2023-05-13T05:26:35.506Z,27.48
2023-05-13T05:29:02.127Z,26.42
2023-05-13T05:31:29.267Z,26.27
2023-05-13T05:34:00.878Z,27.23
2023-05-13T05:36:29.462Z,26.95
2023-05-13T05:38:56.117Z,27.23
2023-05-13T05:41:29.621Z,27.75
2023-05-13T05:43:56.737Z,27.10
2023-05-13T05:46:23.409Z,27.38
2023-05-13T05:48:50.792Z,27.55
2023-05-13T05:51:17.724Z,26.10
2023-05-13T05:53:44.747Z,25.98
2023-05-13T05:56:13.488Z,25.85
2023-05-13T05:58:40.428Z,25.60
2023-05-13T06:01:07.260Z,26.00
2023-05-13T06:03:33.979Z,25.40
2023-05-13T06:06:00.923Z,26.25
2023-05-13T06:08:30.153Z,25.17
2023-05-13T06:11:00.183Z,25.15
2023-05-13T06:13:27.152Z,26.17
2023-05-13T06:15:55.014Z,24.40
2023-05-13T06:18:21.742Z,26.70
2023-05-13T06:20:48.348Z,26.63
2023-05-13T06:23:15.190Z,27.80
2023-05-13T06:25:42.141Z,27.45
2023-05-13T06:28:12.112Z,27.40
2023-05-13T06:30:39.165Z,30.15
2023-05-13T06:33:06.078Z,30.15
2023-05-13T06:35:32.849Z,30.52
2023-05-13T06:38:02.951Z,30.05
2023-05-13T06:40:29.928Z,31.75
2023-05-13T06:42:57.654Z,34.25
2023-05-13T06:45:36.305Z,31.88
2023-05-13T06:48:03.329Z,30.55
2023-05-13T06:50:30.390Z,32.88
2023-05-13T06:52:58.523Z,33.78
2023-05-13T06:55:25.249Z,32.85
2023-05-13T06:57:53.021Z,31.77
2023-05-13T07:00:19.926Z,32.17
2023-05-13T07:02:46.798Z,33.15
2023-05-13T07:05:13.511Z,31.85
2023-05-13T07:07:40.298Z,32.42
2023-05-13T07:10:07.149Z,32.63
2023-05-13T07:12:34.054Z,32.42
2023-05-13T07:15:00.664Z,33.50
2023-05-13T07:17:27.369Z,32.75
2023-05-13T07:19:54.097Z,32.90
2023-05-13T07:22:20.740Z,34.35
2023-05-13T07:24:47.325Z,34.50
2023-05-13T07:27:13.969Z,33.28
2023-05-13T07:29:40.875Z,33.58
2023-05-13T07:32:07.891Z,34.35
2023-05-13T07:34:34.581Z,32.83
2023-05-13T07:37:01.230Z,33.28
2023-05-13T07:39:28.382Z,33.50
2023-05-13T07:41:55.004Z,34.28
2023-05-13T07:44:22.039Z,33.75
2023-05-13T07:46:49.272Z,34.83
2023-05-13T07:49:16.213Z,34.90
2023-05-13T07:51:42.961Z,33.67
2023-05-13T07:54:10.139Z,35.22
2023-05-13T07:56:38.283Z,33.47
2023-05-13T07:59:05.554Z,34.80
2023-05-13T08:01:32.263Z,34.47
2023-05-13T08:03:59.180Z,33.40
2023-05-13T08:06:26.072Z,33.67
2023-05-13T08:08:53.072Z,35.40
2023-05-13T08:11:19.706Z,34.15
2023-05-13T08:13:46.289Z,37.60
2023-05-13T08:16:13.011Z,36.03
2023-05-13T08:18:39.748Z,36.25
2023-05-13T08:21:06.573Z,36.60
2023-05-13T08:23:44.108Z,36.92
2023-05-13T08:26:12.582Z,35.58
2023-05-13T08:28:39.347Z,36.92
2023-05-13T08:31:06.321Z,37.53
2023-05-13T08:33:33.402Z,39.38
2023-05-13T08:36:01.339Z,36.22
2023-05-13T08:38:28.207Z,33.33
2023-05-13T08:40:55.008Z,35.15
2023-05-13T08:43:24.254Z,34.15
2023-05-13T08:45:53.500Z,32.70
2023-05-13T08:48:21.500Z,34.97
2023-05-13T08:50:48.785Z,34.20
2023-05-13T08:53:17.216Z,33.13
2023-05-13T08:55:43.973Z,34.58
2023-05-13T08:58:10.582Z,34.38
2023-05-13T09:00:37.748Z,35.78
2023-05-13T09:03:05.161Z,35.13
2023-05-13T09:05:34.557Z,38.20
2023-05-13T09:08:10.703Z,38.20
2023-05-13T09:10:37.876Z,36.38
2023-05-13T09:13:05.735Z,39.65
2023-05-13T09:15:32.876Z,38.85
2023-05-13T09:18:06.733Z,40.30
2023-05-13T09:20:34.487Z,39.22
2023-05-13T09:23:03.860Z,39.00
2023-05-13T09:25:31.196Z,40.65
2023-05-13T09:28:03.720Z,40.13
2023-05-13T09:30:43.801Z,40.95
2023-05-13T09:33:19.683Z,40.97
2023-05-13T09:35:54.317Z,41.53
2023-05-13T09:38:26.179Z,40.45
2023-05-13T09:40:58.290Z,41.78
2023-05-13T09:43:31.259Z,41.25
2023-05-13T09:46:01.626Z,40.50
2023-05-13T09:48:30.189Z,39.33
2023-05-13T09:51:03.038Z,40.70
2023-05-13T09:53:31.264Z,39.20
2023-05-13T09:55:59.855Z,39.78
2023-05-13T09:58:29.104Z,40.70
2023-05-13T10:00:59.559Z,37.13
2023-05-13T10:03:28.436Z,39.28
2023-05-13T10:05:56.182Z,38.67
2023-05-13T10:08:24.203Z,40.03
2023-05-13T10:10:54.928Z,40.03
2023-05-13T10:13:24.199Z,40.20
2023-05-13T10:15:53.241Z,38.80
2023-05-13T10:18:21.405Z,39.78
2023-05-13T10:20:52.883Z,39.05
2023-05-13T10:23:21.239Z,39.13
2023-05-13T10:25:48.548Z,39.67
2023-05-13T10:28:22.174Z,41.38
2023-05-13T10:30:51.884Z,40.78
2023-05-13T10:33:19.262Z,39.33
2023-05-13T10:36:25.860Z,43.28
2023-05-13T10:39:10.956Z,40.92
2023-05-13T10:41:56.146Z,40.63
2023-05-13T10:46:50.407Z,42.00
2023-05-13T10:49:17.211Z,41.38
2023-05-13T10:51:49.207Z,40.72
2023-05-13T10:54:24.654Z,42.08
2023-05-13T10:56:58.888Z,36.03
2023-05-13T10:59:30.171Z,40.80
2023-05-13T11:01:57.294Z,36.85
2023-05-13T11:04:23.983Z,40.90
2023-05-13T11:06:51.947Z,41.40
2023-05-13T11:09:22.735Z,43.92
2023-05-13T11:11:59.816Z,43.88
2023-05-13T11:14:30.112Z,43.67
2023-05-13T11:17:04.192Z,41.80
2023-05-13T11:19:34.799Z,43.42
2023-05-13T11:22:15.268Z,42.08
2023-05-13T11:24:45.814Z,43.95
2023-05-13T11:27:17.970Z,44.85
2023-05-13T11:29:50.363Z,43.97
2023-05-13T11:32:53.580Z,44.10
2023-05-13T11:35:31.361Z,43.58
2023-05-13T11:38:00.990Z,40.45
2023-05-13T11:40:31.569Z,44.03
2023-05-13T11:42:59.007Z,44.05
2023-05-13T11:45:26.907Z,42.03
2023-05-13T11:47:54.492Z,45.05
2023-05-13T11:50:30.181Z,44.00
2023-05-13T11:52:59.138Z,42.28
2023-05-13T11:55:34.400Z,44.92
2023-05-13T11:58:01.095Z,42.90
2023-05-13T12:00:31.599Z,40.88
2023-05-13T12:02:59.441Z,41.50
2023-05-13T12:05:27.408Z,42.45
2023-05-13T12:07:58.589Z,37.45
2023-05-13T12:10:27.071Z,42.05
2023-05-13T12:12:54.238Z,42.80
2023-05-13T12:15:22.411Z,41.72
2023-05-13T12:17:50.010Z,43.03
2023-05-13T12:20:19.123Z,47.35
2023-05-13T12:22:45.683Z,45.88
2023-05-13T12:25:37.259Z,39.40
2023-05-13T12:28:09.154Z,38.03
2023-05-13T12:30:40.923Z,45.58
2023-05-13T12:33:15.967Z,45.40
2023-05-13T12:35:44.258Z,45.60
2023-05-13T12:38:16.342Z,46.70
2023-05-13T12:40:43.864Z,46.55
2023-05-13T12:43:11.642Z,47.15
2023-05-13T12:45:42.607Z,46.42
2023-05-13T12:48:11.847Z,41.53
2023-05-13T12:50:38.668Z,44.08
2023-05-13T12:53:05.722Z,42.85
2023-05-13T12:55:32.901Z,45.28
2023-05-13T12:58:02.057Z,44.70
2023-05-13T13:00:29.636Z,40.75
2023-05-13T13:02:57.491Z,46.28
2023-05-13T13:05:25.599Z,45.75
2023-05-13T13:07:52.421Z,46.08
2023-05-13T13:10:19.223Z,45.80
2023-05-13T13:12:46.021Z,45.35
2023-05-13T13:15:12.725Z,43.80
2023-05-13T13:17:39.415Z,45.60
2023-05-13T13:20:07.504Z,44.60
2023-05-13T13:22:36.869Z,45.60
2023-05-13T13:25:06.089Z,48.13
2023-05-13T13:27:34.133Z,46.17
2023-05-13T13:30:00.854Z,49.00
2023-05-13T13:32:27.627Z,46.80
2023-05-13T13:34:54.313Z,45.72
2023-05-13T13:37:20.967Z,47.00
2023-05-13T13:39:47.695Z,45.60
2023-05-13T13:42:14.354Z,44.38
2023-05-13T13:44:40.993Z,38.95
2023-05-13T13:47:07.665Z,41.13
2023-05-13T13:49:34.330Z,49.75
2023-05-13T13:52:00.960Z,47.13
2023-05-13T13:54:27.623Z,41.50
2023-05-13T13:56:54.290Z,43.22
2023-05-13T13:59:21.305Z,42.75
2023-05-13T14:01:48.050Z,41.50
2023-05-13T14:04:19.792Z,45.00
2023-05-13T14:06:46.863Z,41.72
2023-05-13T14:09:13.553Z,41.03
2023-05-13T14:11:40.241Z,42.15
2023-05-13T14:14:07.086Z,41.72
2023-05-13T14:16:33.733Z,42.55
2023-05-13T14:19:00.553Z,43.60
2023-05-13T14:21:27.245Z,43.60
2023-05-13T14:23:53.897Z,44.00
2023-05-13T14:26:21.062Z,48.33
2023-05-13T14:28:47.721Z,47.75
2023-05-13T14:31:14.425Z,50.67
2023-05-13T14:33:41.089Z,48.28
2023-05-13T14:36:10.900Z,43.63
2023-05-13T14:38:39.714Z,43.88
2023-05-13T14:41:06.319Z,46.63
2023-05-13T14:43:32.917Z,48.88
2023-05-13T14:45:59.840Z,43.50
2023-05-13T14:48:27.321Z,43.50
2023-05-13T14:50:54.051Z,43.83
2023-05-13T14:53:20.832Z,41.38
2023-05-13T14:55:49.361Z,44.15
2023-05-13T14:58:17.318Z,45.28
2023-05-13T15:00:44.432Z,44.70
2023-05-13T15:03:12.064Z,45.53
2023-05-13T15:05:38.977Z,42.35
2023-05-13T15:08:05.629Z,45.33
2023-05-13T15:10:32.303Z,45.75
2023-05-13T15:12:59.046Z,42.92
2023-05-13T15:15:25.817Z,43.75
2023-05-13T15:17:52.801Z,41.25
2023-05-13T15:20:19.713Z,45.53
2023-05-13T15:22:46.392Z,42.65
2023-05-13T15:25:13.220Z,44.20
2023-05-13T15:27:40.033Z,43.17
2023-05-13T15:30:07.377Z,46.30
2023-05-13T15:32:34.064Z,42.90
2023-05-13T15:35:00.749Z,41.28
2023-05-13T15:37:27.407Z,42.25
2023-05-13T15:39:54.356Z,40.15
2023-05-13T15:42:21.281Z,38.78
2023-05-13T15:44:47.980Z,41.65
2023-05-13T15:47:14.691Z,38.38
2023-05-13T15:49:41.849Z,38.45
2023-05-13T15:52:08.457Z,41.78
2023-05-13T15:54:35.125Z,41.20
2023-05-13T15:57:01.767Z,44.90
2023-05-13T15:59:28.429Z,43.00
2023-05-13T16:01:55.042Z,41.90
2023-05-13T16:04:21.856Z,44.60
2023-05-13T16:06:48.515Z,46.35
2023-05-13T16:09:15.184Z,43.38
2023-05-13T16:11:43.283Z,45.10
2023-05-13T16:14:09.962Z,43.65
2023-05-13T16:16:37.482Z,45.08
2023-05-13T16:19:04.250Z,43.97
2023-05-13T16:21:32.692Z,43.33
2023-05-13T16:23:59.372Z,46.88
2023-05-13T16:26:26.211Z,45.35
2023-05-13T16:28:52.887Z,48.22
2023-05-13T16:31:19.547Z,45.28
2023-05-13T16:33:46.262Z,45.28
2023-05-13T16:36:13.349Z,44.75
2023-05-13T16:38:41.331Z,44.05
2023-05-13T16:41:08.576Z,44.60
2023-05-13T16:43:35.214Z,44.88
2023-05-13T16:46:01.913Z,43.83
2023-05-13T16:48:28.656Z,44.17
2023-05-13T16:50:55.817Z,41.13
2023-05-13T16:53:22.873Z,42.17
2023-05-13T16:55:50.217Z,43.67
2023-05-13T16:58:17.170Z,42.90
2023-05-13T17:00:44.785Z,42.15
2023-05-13T17:03:13.182Z,41.58
2023-05-13T17:05:40.201Z,43.85
2023-05-13T17:08:06.832Z,40.40
2023-05-13T17:10:33.458Z,43.15
2023-05-13T17:13:00.253Z,43.15
2023-05-13T17:15:26.876Z,44.30
2023-05-13T17:17:53.620Z,44.42
2023-05-13T17:20:20.530Z,42.92
2023-05-13T17:22:48.477Z,42.08
2023-05-13T17:25:15.330Z,42.47
2023-05-13T17:27:42.013Z,43.38
2023-05-13T17:30:09.171Z,43.45
2023-05-13T17:32:36.240Z,43.80
2023-05-13T17:35:04.335Z,44.50
2023-05-13T17:37:30.938Z,43.90
2023-05-13T17:40:00.501Z,45.97
2023-05-13T17:42:28.834Z,45.60
2023-05-13T17:44:55.784Z,45.58
2023-05-13T17:47:22.472Z,45.72
2023-05-13T17:49:49.171Z,49.45
2023-05-13T17:52:15.819Z,51.13
2023-05-13T17:54:42.535Z,54.65
2023-05-13T17:57:10.862Z,58.22
2023-05-13T17:59:38.110Z,55.72
2023-05-13T18:02:04.903Z,59.45
2023-05-13T18:04:31.536Z,58.95
2023-05-13T18:07:01.042Z,59.55
2023-05-13T18:09:28.000Z,57.60
2023-05-13T18:11:54.654Z,56.15
2023-05-13T18:14:21.279Z,53.97
2023-05-13T18:16:48.202Z,51.67
2023-05-13T18:19:15.003Z,45.50
2023-05-13T18:21:41.680Z,38.88
2023-05-13T18:24:08.622Z,38.40
2023-05-13T18:26:35.328Z,38.30
2023-05-13T18:29:02.913Z,40.40
2023-05-13T18:31:29.746Z,37.35
2023-05-13T18:33:56.412Z,37.95
2023-05-13T18:36:23.070Z,38.75
2023-05-13T18:38:49.751Z,37.35
2023-05-13T18:41:16.378Z,38.30
2023-05-13T18:43:43.108Z,39.63
2023-05-13T18:46:09.940Z,39.10
2023-05-13T18:48:36.687Z,41.38
2023-05-13T18:51:03.871Z,39.38
2023-05-13T18:53:30.657Z,40.13
2023-05-13T18:55:59.302Z,23.83
2023-05-13T18:58:26.710Z,23.50
2023-05-13T19:00:53.395Z,23.50
2023-05-13T19:03:20.217Z,24.15
2023-05-13T19:05:47.027Z,23.65
2023-05-13T19:08:13.743Z,24.73
2023-05-13T19:10:40.774Z,24.40
2023-05-13T19:13:07.643Z,24.38
2023-05-13T19:15:34.377Z,38.92
2023-05-13T19:18:01.704Z,25.58
2023-05-13T19:20:29.769Z,25.05
2023-05-13T19:22:56.503Z,25.63
2023-05-13T19:25:23.218Z,25.42
2023-05-13T19:27:49.958Z,25.58
2023-05-13T19:30:16.705Z,25.02
2023-05-13T19:32:43.662Z,25.48
2023-05-13T19:35:11.290Z,26.73
2023-05-13T19:37:38.333Z,34.03
2023-05-13T19:40:06.100Z,39.28
2023-05-13T19:42:32.790Z,42.80
2023-05-13T19:44:59.437Z,27.92
2023-05-13T19:47:26.903Z,37.15
2023-05-13T19:49:53.768Z,31.90
2023-05-13T19:52:20.681Z,25.13
2023-05-13T19:54:47.375Z,24.63
2023-05-13T19:57:14.052Z,23.98
2023-05-13T19:59:41.655Z,23.88
2023-05-13T20:02:08.711Z,23.40
2023-05-13T20:04:35.570Z,24.20
2023-05-13T20:07:02.273Z,24.25
2023-05-13T20:09:28.901Z,24.33
2023-05-13T20:11:55.626Z,24.77
2023-05-13T20:14:23.164Z,25.08
2023-05-13T20:16:49.873Z,25.13
2023-05-13T20:19:17.103Z,24.95
2023-05-13T20:21:44.213Z,25.10
2023-05-13T20:24:10.941Z,25.65
2023-05-13T20:26:37.700Z,25.38
2023-05-13T20:29:04.366Z,25.58
2023-05-13T20:31:31.069Z,25.90
2023-05-13T20:33:58.421Z,31.23
2023-05-13T20:36:25.080Z,26.10
2023-05-13T20:38:51.678Z,26.10
2023-05-13T20:41:18.329Z,26.55
2023-05-13T20:43:44.911Z,29.38
2023-05-13T20:46:17.014Z,32.75
2023-05-13T20:48:43.868Z,31.45
2023-05-13T20:51:10.579Z,34.55
2023-05-13T20:53:37.646Z,37.17
2023-05-13T20:56:04.533Z,33.10
2023-05-13T20:58:31.305Z,32.60
2023-05-13T21:00:58.064Z,31.45
2023-05-13T21:03:25.044Z,30.13
2023-05-13T21:05:51.801Z,30.60
2023-05-13T21:08:18.455Z,29.90
2023-05-13T21:10:45.154Z,28.63
2023-05-13T21:13:11.786Z,28.20
2023-05-13T21:15:38.825Z,29.40
2023-05-13T21:18:05.705Z,29.05
2023-05-13T21:20:32.690Z,26.67
2023-05-13T21:23:00.779Z,25.85
2023-05-13T21:25:27.657Z,26.00
2023-05-13T21:27:54.258Z,29.55
2023-05-13T21:30:21.162Z,28.67
2023-05-13T21:32:48.016Z,28.45
2023-05-13T21:35:14.801Z,32.08
2023-05-13T21:37:41.414Z,33.97
2023-05-13T21:40:08.777Z,34.13
2023-05-13T21:42:35.519Z,33.03
2023-05-13T21:45:02.633Z,32.60
2023-05-13T21:47:29.377Z,31.48
2023-05-13T21:49:56.238Z,30.08
2023-05-13T21:52:22.858Z,31.08
2023-05-13T21:54:49.563Z,31.65
2023-05-13T21:57:16.522Z,30.08
2023-05-13T21:59:43.377Z,29.90
2023-05-13T22:02:10.062Z,29.20
2023-05-13T22:04:39.952Z,27.95
2023-05-13T22:07:06.581Z,28.25
2023-05-13T22:09:33.275Z,28.60
2023-05-13T22:12:00.280Z,29.52
2023-05-13T22:14:26.914Z,30.83
2023-05-13T22:17:07.983Z,30.25
2023-05-13T22:19:35.897Z,28.77
2023-05-13T22:22:02.657Z,31.58
2023-05-13T22:24:29.268Z,29.88
2023-05-13T22:26:55.888Z,28.33
2023-05-13T22:29:22.491Z,27.73
2023-05-13T22:31:49.286Z,26.38
2023-05-13T22:34:15.967Z,26.00
2023-05-13T22:36:43.937Z,26.63
2023-05-13T22:39:12.135Z,25.10
2023-05-13T22:41:38.777Z,24.92
2023-05-13T22:44:05.554Z,25.38
2023-05-13T22:46:32.431Z,24.38
2023-05-13T22:48:59.114Z,23.08
2023-05-13T22:51:25.736Z,24.55
2023-05-13T22:53:52.583Z,24.38
2023-05-13T22:56:19.632Z,23.95
2023-05-13T22:58:46.324Z,23.77
2023-05-13T23:01:13.081Z,23.70
2023-05-13T23:03:39.764Z,24.15
2023-05-13T23:06:06.608Z,23.50
2023-05-13T23:08:33.419Z,23.95
2023-05-13T23:11:00.149Z,24.17
2023-05-13T23:13:26.792Z,23.25
2023-05-13T23:15:53.609Z,23.35
2023-05-13T23:18:20.288Z,22.02
2023-05-13T23:20:55.630Z,21.30
2023-05-13T23:23:22.813Z,22.10
2023-05-13T23:25:50.195Z,22.90
2023-05-13T23:28:17.125Z,21.50
2023-05-13T23:30:44.285Z,21.15
2023-05-13T23:33:10.936Z,21.95
2023-05-13T23:35:37.662Z,21.45
2023-05-13T23:38:04.447Z,22.48
2023-05-13T23:40:31.048Z,23.77
2023-05-13T23:42:57.673Z,22.70
2023-05-13T23:45:24.406Z,23.13
2023-05-13T23:47:51.185Z,23.15
2023-05-13T23:50:17.894Z,22.42
2023-05-13T23:52:44.573Z,23.85
2023-05-13T23:55:11.237Z,24.02
2023-05-13T23:57:38.368Z,23.20
